Terminal Aerodrome Forecast
Issued by NWS Wilmington, OH

Current Version | Previous Version | Graphics & Text | Print | Product List | Glossary On
Versions: 1 2 3 4 5 6 7 8 9 10 11 12 13 14 15 16 17 18 19 20 21 22 23 24 25 26 27 28 29
000
FTUS41 KILN 210800 AAA
TAFDAY
TAF AMD
KDAY 210803Z 2108/2206 22014KT P6SM VCSH BKN050
     FM211000 24012KT P6SM VCSH OVC015
     FM211400 26012KT P6SM BKN025
     FM211500 27015G25KT P6SM SCT040
     FM211800 28018G28KT P6SM BKN050
     FM220200 31014KT P6SM OVC040=

USA.gov is the U.S. government's official web portal to all federal, state and local government web resources and services.